createdAt,value
2022-08-11T00:02:36.130Z,20.91
2022-08-11T00:05:08.308Z,20.91
2022-08-11T00:07:43.633Z,20.89
2022-08-11T00:10:13.296Z,20.87
2022-08-11T00:12:43.042Z,20.83
2022-08-11T00:15:12.591Z,20.78
2022-08-11T00:17:42.826Z,20.80
2022-08-11T00:20:16.743Z,20.79
2022-08-11T00:22:47.680Z,20.74
2022-08-11T00:25:18.072Z,20.66
2022-08-11T00:27:47.402Z,20.60
2022-08-11T00:30:17.056Z,20.60
2022-08-11T00:32:56.509Z,20.64
2022-08-11T00:35:54.097Z,20.55
2022-08-11T00:38:18.904Z,20.57
2022-08-11T00:40:56.237Z,20.56
2022-08-11T00:43:34.679Z,20.54
2022-08-11T00:46:24.106Z,20.48
2022-08-11T00:49:12.071Z,20.48
2022-08-11T00:52:04.271Z,20.39
2022-08-11T00:55:07.557Z,20.34
2022-08-11T00:57:57.174Z,20.28
2022-08-11T01:00:27.788Z,20.31
2022-08-11T01:03:18.485Z,20.32
2022-08-11T01:06:01.907Z,20.30
2022-08-11T01:08:53.276Z,20.31
2022-08-11T01:12:10.531Z,20.20
2022-08-11T01:15:11.745Z,20.18
2022-08-11T01:18:15.610Z,20.17
2022-08-11T01:21:14.090Z,20.13
2022-08-11T01:24:36.437Z,20.08
2022-08-11T01:27:50.609Z,19.97
2022-08-11T01:30:50.499Z,19.94
2022-08-11T01:33:51.922Z,19.92
2022-08-11T01:39:50.423Z,19.85
2022-08-11T01:42:59.745Z,19.81
2022-08-11T01:45:33.463Z,19.77
2022-08-11T01:48:15.890Z,19.75
2022-08-11T01:50:58.688Z,19.73
2022-08-11T01:53:36.107Z,19.69
2022-08-11T01:56:22.730Z,19.67
2022-08-11T01:59:01.549Z,19.64
2022-08-11T02:01:40.999Z,19.65
2022-08-11T02:04:19.699Z,19.66
2022-08-11T02:06:56.928Z,19.63
2022-08-11T02:09:49.871Z,19.62
2022-08-11T02:12:37.906Z,19.57
2022-08-11T02:15:15.664Z,19.57
2022-08-11T02:17:55.121Z,19.58
2022-08-11T02:20:46.071Z,19.56
2022-08-11T02:24:06.220Z,19.51
2022-08-11T02:26:39.626Z,19.41
2022-08-11T02:29:17.081Z,19.39
2022-08-11T02:32:30.286Z,19.36
2022-08-11T02:35:11.358Z,19.31
2022-08-11T02:37:51.457Z,19.33
2022-08-11T02:40:27.543Z,19.32
2022-08-11T02:43:05.577Z,19.30
2022-08-11T02:45:48.643Z,19.30
2022-08-11T02:48:55.835Z,19.30
2022-08-11T02:51:36.258Z,19.26
2022-08-11T02:54:11.351Z,19.24
2022-08-11T02:56:47.864Z,19.23
2022-08-11T02:59:44.265Z,19.22
2022-08-11T03:02:23.700Z,19.21
2022-08-11T03:05:04.411Z,19.21
2022-08-11T03:07:43.468Z,19.14
2022-08-11T03:10:21.782Z,19.20
2022-08-11T03:13:15.656Z,19.21
2022-08-11T03:16:04.510Z,19.21
2022-08-11T03:18:42.303Z,19.28
2022-08-11T03:21:17.381Z,19.27
2022-08-11T03:23:56.346Z,19.23
2022-08-11T03:26:29.650Z,19.19
2022-08-11T03:29:07.006Z,19.17
2022-08-11T03:31:38.635Z,19.16
2022-08-11T03:34:15.141Z,19.12
2022-08-11T03:37:39.257Z,19.09
2022-08-11T03:40:40.447Z,19.14
2022-08-11T03:43:18.336Z,19.09
2022-08-11T03:45:57.445Z,19.07
2022-08-11T03:48:39.548Z,19.01
2022-08-11T03:51:19.922Z,19.00
2022-08-11T03:54:09.545Z,18.96
2022-08-11T03:57:21.239Z,18.94
2022-08-11T04:00:20.484Z,18.95
2022-08-11T04:03:23.751Z,18.97
2022-08-11T04:06:38.383Z,18.96
2022-08-11T04:10:03.245Z,18.94
2022-08-11T04:13:18.861Z,18.90
2022-08-11T04:16:23.670Z,18.87
2022-08-11T04:19:24.826Z,18.84
2022-08-11T04:22:20.057Z,18.84
2022-08-11T04:25:22.456Z,18.85
2022-08-11T04:28:31.436Z,18.85
2022-08-11T04:31:10.186Z,18.82
2022-08-11T04:34:16.800Z,18.84
2022-08-11T04:37:35.005Z,18.83
2022-08-11T04:40:53.850Z,18.81
2022-08-11T04:44:02.645Z,18.85
2022-08-11T04:46:59.397Z,18.97
2022-08-11T04:49:59.281Z,18.95
2022-08-11T04:53:05.532Z,18.95
2022-08-11T04:56:21.060Z,19.01
2022-08-11T04:59:19.409Z,19.05
2022-08-11T05:02:17.302Z,19.08
2022-08-11T05:05:27.441Z,19.13
2022-08-11T05:08:50.941Z,19.17
2022-08-11T05:11:46.099Z,19.18
2022-08-11T05:14:54.846Z,19.27
2022-08-11T05:17:55.170Z,19.35
2022-08-11T05:20:43.782Z,19.42
2022-08-11T05:23:30.516Z,19.48
2022-08-11T05:26:46.421Z,19.53
2022-08-11T05:29:45.511Z,19.68
2022-08-11T05:32:34.829Z,19.77
2022-08-11T05:35:07.635Z,19.85
2022-08-11T05:37:42.331Z,19.93
2022-08-11T05:40:30.397Z,19.92
2022-08-11T05:43:19.427Z,19.96
2022-08-11T05:46:15.748Z,20.13
2022-08-11T05:49:02.316Z,20.12
2022-08-11T05:51:55.473Z,20.21
2022-08-11T05:54:46.207Z,20.29
2022-08-11T05:57:48.559Z,20.43
2022-08-11T06:00:12.431Z,20.54
2022-08-11T06:02:44.677Z,20.54
2022-08-11T06:05:14.305Z,20.63
2022-08-11T06:07:48.373Z,20.69
2022-08-11T06:10:28.192Z,20.84
2022-08-11T06:12:56.973Z,20.77
2022-08-11T06:15:27.571Z,20.92
2022-08-11T06:17:56.959Z,20.95
2022-08-11T06:20:26.488Z,21.06
2022-08-11T06:22:59.732Z,21.16
2022-08-11T06:25:33.043Z,21.24
2022-08-11T06:28:01.770Z,21.35
2022-08-11T06:30:40.783Z,21.46
2022-08-11T06:33:12.553Z,21.56
2022-08-11T06:35:49.676Z,21.63
2022-08-11T06:38:32.269Z,21.80
2022-08-11T06:41:22.447Z,21.85
2022-08-11T06:43:56.346Z,21.92
2022-08-11T06:46:32.206Z,21.97
2022-08-11T06:49:03.948Z,22.10
2022-08-11T06:51:32.494Z,22.18
2022-08-11T06:54:05.686Z,22.33
2022-08-11T06:57:18.588Z,23.35
2022-08-11T07:00:01.877Z,26.39
2022-08-11T07:02:34.980Z,28.60
2022-08-11T07:05:08.893Z,29.91
2022-08-11T07:08:33.727Z,30.55
2022-08-11T07:11:39.780Z,31.85
2022-08-11T07:14:26.608Z,31.80
2022-08-11T07:16:55.430Z,31.91
2022-08-11T07:19:46.022Z,32.66
2022-08-11T07:22:32.953Z,33.80
2022-08-11T07:25:21.720Z,33.38
2022-08-11T07:28:15.045Z,34.68
2022-08-11T07:30:44.054Z,35.56
2022-08-11T07:34:04.867Z,35.43
2022-08-11T07:36:06.634Z,35.10
2022-08-11T07:38:47.520Z,35.36
2022-08-11T07:41:17.438Z,36.44
2022-08-11T07:43:49.756Z,36.73
2022-08-11T07:46:35.873Z,37.64
2022-08-11T07:49:23.120Z,38.30
2022-08-11T07:52:11.785Z,38.81
2022-08-11T07:54:41.672Z,38.63
2022-08-11T07:58:14.647Z,38.69
2022-08-11T08:00:35.526Z,39.03
2022-08-11T08:03:22.345Z,39.48
2022-08-11T08:06:35.487Z,39.96
2022-08-11T08:09:15.990Z,40.03
2022-08-11T08:12:03.647Z,39.12
2022-08-11T08:14:49.311Z,40.15
2022-08-11T08:17:35.530Z,40.95
2022-08-11T08:20:03.946Z,40.70
2022-08-11T08:22:39.073Z,39.99
2022-08-11T08:25:10.489Z,40.36
2022-08-11T08:27:40.340Z,40.17
2022-08-11T08:30:27.204Z,40.63
2022-08-11T08:32:57.808Z,40.33
2022-08-11T08:35:29.425Z,39.15
2022-08-11T08:38:00.919Z,39.35
2022-08-11T08:40:30.589Z,39.68
2022-08-11T08:43:03.224Z,40.07
2022-08-11T08:45:37.671Z,39.69
2022-08-11T08:48:15.977Z,40.13
2022-08-11T08:51:11.128Z,40.41
2022-08-11T08:53:52.460Z,41.10
2022-08-11T08:56:29.085Z,40.97
2022-08-11T08:59:00.568Z,40.51
2022-08-11T09:01:32.334Z,39.51
2022-08-11T09:04:06.690Z,40.03
2022-08-11T09:06:41.180Z,41.14
2022-08-11T09:09:12.191Z,40.67
2022-08-11T09:11:53.533Z,40.63
2022-08-11T09:14:24.358Z,41.20
2022-08-11T09:16:54.323Z,41.48
2022-08-11T09:19:22.872Z,41.23
2022-08-11T09:22:08.871Z,40.17
2022-08-11T09:24:51.925Z,40.64
2022-08-11T09:27:22.505Z,40.14
2022-08-11T09:29:51.856Z,40.79
2022-08-11T09:32:21.731Z,39.62
2022-08-11T09:34:54.150Z,38.67
2022-08-11T09:37:54.923Z,39.32
2022-08-11T09:40:33.804Z,38.20
2022-08-11T09:43:23.980Z,38.06
2022-08-11T09:45:54.138Z,37.91
2022-08-11T09:48:24.675Z,37.02
2022-08-11T09:50:55.918Z,36.25
2022-08-11T09:53:36.167Z,35.50
2022-08-11T09:56:30.563Z,35.24
2022-08-11T09:59:00.956Z,34.29
2022-08-11T10:01:33.146Z,34.04
2022-08-11T10:04:07.541Z,33.98
2022-08-11T10:06:56.430Z,33.44
2022-08-11T10:09:26.129Z,33.47
2022-08-11T10:11:58.710Z,33.78
2022-08-11T10:14:48.911Z,33.78
2022-08-11T10:17:20.113Z,33.52
2022-08-11T10:20:04.059Z,33.90
2022-08-11T10:22:52.873Z,33.60
2022-08-11T10:25:39.797Z,33.62
2022-08-11T10:28:29.010Z,33.51
2022-08-11T10:31:18.341Z,33.45
2022-08-11T10:34:06.839Z,33.46
2022-08-11T10:36:45.049Z,33.61
2022-08-11T10:39:18.016Z,33.80
2022-08-11T10:42:09.622Z,33.70
2022-08-11T10:44:43.328Z,33.15
2022-08-11T10:47:33.060Z,32.17
2022-08-11T10:50:19.326Z,32.32
2022-08-11T10:53:08.443Z,32.15
2022-08-11T10:55:54.773Z,32.30
2022-08-11T10:58:44.647Z,32.41
2022-08-11T11:01:13.483Z,32.47
2022-08-11T11:03:44.126Z,32.25
2022-08-11T11:06:28.237Z,32.06
2022-08-11T11:09:05.372Z,32.19
2022-08-11T11:11:55.793Z,31.86
2022-08-11T11:14:46.374Z,31.86
2022-08-11T11:17:38.932Z,32.00
2022-08-11T11:20:10.072Z,31.66
2022-08-11T11:23:04.884Z,31.21
2022-08-11T11:26:07.514Z,31.22
2022-08-11T11:28:58.003Z,31.22
2022-08-11T11:31:37.192Z,30.91
2022-08-11T11:34:28.143Z,30.96
2022-08-11T11:36:58.672Z,30.80
2022-08-11T11:39:28.521Z,30.69
2022-08-11T11:41:58.386Z,30.91
2022-08-11T11:44:27.150Z,30.93
2022-08-11T11:46:56.794Z,30.78
2022-08-11T11:49:28.213Z,30.60
2022-08-11T11:51:59.187Z,30.55
2022-08-11T11:54:28.803Z,30.57
2022-08-11T11:56:58.666Z,30.74
2022-08-11T11:59:47.183Z,30.59
2022-08-11T12:02:17.438Z,30.32
2022-08-11T12:04:48.801Z,30.27
2022-08-11T12:07:35.976Z,30.49
2022-08-11T12:10:04.700Z,30.52
2022-08-11T12:12:50.828Z,30.52
2022-08-11T12:15:19.896Z,30.36
2022-08-11T12:18:08.565Z,30.23
2022-08-11T12:20:36.711Z,30.35
2022-08-11T12:23:23.838Z,30.36
2022-08-11T12:26:26.294Z,30.42
2022-08-11T12:28:59.012Z,30.16
2022-08-11T12:31:27.230Z,30.20
2022-08-11T12:34:00.799Z,30.41
2022-08-11T12:36:29.877Z,30.43
2022-08-11T12:38:59.761Z,30.47
2022-08-11T12:41:53.445Z,30.50
2022-08-11T12:44:43.782Z,30.16
2022-08-11T12:47:12.504Z,30.22
2022-08-11T12:50:05.389Z,30.31
2022-08-11T12:52:37.431Z,30.33
2022-08-11T12:55:13.790Z,30.44
2022-08-11T12:58:04.094Z,30.42
2022-08-11T13:00:51.034Z,30.36
2022-08-11T13:03:38.934Z,30.43
2022-08-11T13:06:08.768Z,30.40
2022-08-11T13:08:40.865Z,30.62
2022-08-11T13:11:56.221Z,30.81
2022-08-11T13:14:17.898Z,30.89
2022-08-11T13:17:04.843Z,30.97
2022-08-11T13:19:34.527Z,30.98
2022-08-11T13:22:07.534Z,30.89
2022-08-11T13:24:37.211Z,30.84
2022-08-11T13:27:07.660Z,30.83
2022-08-11T13:29:36.795Z,30.78
2022-08-11T13:32:04.547Z,30.93
2022-08-11T13:34:33.408Z,30.93
2022-08-11T13:37:04.274Z,30.62
2022-08-11T13:39:34.643Z,30.68
2022-08-11T13:42:04.206Z,30.77
2022-08-11T13:44:37.924Z,30.76
2022-08-11T13:47:08.302Z,30.73
2022-08-11T13:49:39.983Z,30.69
2022-08-11T13:52:14.027Z,30.79
2022-08-11T13:54:43.644Z,30.84
2022-08-11T13:58:06.323Z,30.72
2022-08-11T14:00:22.538Z,30.81
2022-08-11T14:02:57.998Z,30.90
2022-08-11T14:05:29.478Z,30.91
2022-08-11T14:08:02.602Z,30.92
2022-08-11T14:10:34.274Z,30.75
2022-08-11T14:13:21.225Z,30.76
2022-08-11T14:15:52.513Z,30.82
2022-08-11T14:18:23.709Z,30.76
2022-08-11T14:21:14.998Z,30.50
2022-08-11T14:23:45.369Z,30.62
2022-08-11T14:26:27.031Z,30.82
2022-08-11T14:29:02.199Z,30.77
2022-08-11T14:31:34.530Z,30.63
2022-08-11T14:34:05.660Z,30.63
2022-08-11T14:36:38.112Z,30.65
2022-08-11T14:39:11.663Z,30.72
2022-08-11T14:42:12.087Z,30.87
2022-08-11T14:45:02.202Z,30.90
2022-08-11T14:47:35.969Z,31.09
2022-08-11T14:50:10.898Z,31.40
2022-08-11T14:52:45.012Z,31.44
2022-08-11T14:55:32.865Z,31.34
2022-08-11T14:58:02.265Z,31.26
2022-08-11T15:00:31.115Z,31.27
2022-08-11T15:03:14.013Z,31.15
2022-08-11T15:05:56.030Z,31.14
2022-08-11T15:08:42.446Z,31.11
2022-08-11T15:11:32.493Z,30.89
2022-08-11T15:14:02.471Z,30.85
2022-08-11T15:16:48.812Z,30.89
2022-08-11T15:19:21.254Z,30.83
2022-08-11T15:22:07.154Z,30.60
2022-08-11T15:24:36.544Z,30.55
2022-08-11T15:27:24.099Z,30.60
2022-08-11T15:30:20.224Z,30.70
2022-08-11T15:33:17.817Z,30.56
2022-08-11T15:36:05.280Z,30.50
2022-08-11T15:38:37.244Z,30.48
2022-08-11T15:41:25.121Z,30.54
2022-08-11T15:44:12.966Z,30.48
2022-08-11T15:46:43.371Z,30.42
2022-08-11T15:49:21.881Z,30.43
2022-08-11T15:52:01.873Z,30.27
2022-08-11T15:54:33.149Z,30.23
2022-08-11T15:57:03.349Z,30.29
2022-08-11T15:59:51.001Z,30.23
2022-08-11T16:02:40.050Z,30.22
2022-08-11T16:05:14.425Z,30.18
2022-08-11T16:08:05.268Z,30.20
2022-08-11T16:10:35.753Z,30.18
2022-08-11T16:13:19.821Z,30.08
2022-08-11T16:16:08.591Z,30.02
2022-08-11T16:18:42.840Z,30.01
2022-08-11T16:21:34.147Z,30.07
2022-08-11T16:24:06.072Z,30.04
2022-08-11T16:27:08.488Z,30.09
2022-08-11T16:29:26.430Z,29.97
2022-08-11T16:32:14.527Z,29.95
2022-08-11T16:35:02.455Z,29.76
2022-08-11T16:37:49.932Z,29.75
2022-08-11T16:40:22.642Z,29.73
2022-08-11T16:43:11.670Z,29.67
2022-08-11T16:45:59.657Z,29.67
2022-08-11T16:48:35.134Z,29.59
2022-08-11T16:51:06.646Z,29.55
2022-08-11T16:54:03.359Z,29.54
2022-08-11T16:56:29.624Z,29.47
2022-08-11T16:59:16.670Z,29.49
2022-08-11T17:01:49.214Z,29.31
2022-08-11T17:04:46.153Z,29.14
2022-08-11T17:07:41.944Z,29.06
2022-08-11T17:10:50.806Z,28.94
2022-08-11T17:13:25.510Z,28.79
2022-08-11T17:16:11.935Z,28.77
2022-08-11T17:18:46.955Z,28.71
2022-08-11T17:21:21.457Z,28.71
2022-08-11T17:23:55.376Z,28.66
2022-08-11T17:26:27.569Z,28.57
2022-08-11T17:29:00.453Z,28.56
2022-08-11T17:31:47.639Z,28.47
2022-08-11T17:34:33.874Z,28.38
2022-08-11T17:37:02.858Z,28.40
2022-08-11T17:39:32.781Z,28.30
2022-08-11T17:42:20.553Z,28.32
2022-08-11T17:45:08.044Z,28.24
2022-08-11T17:47:54.259Z,28.06
2022-08-11T17:50:23.281Z,28.05
2022-08-11T17:53:09.962Z,28.06
2022-08-11T17:55:58.049Z,28.08
2022-08-11T17:58:47.482Z,27.99
2022-08-11T18:01:18.747Z,27.91
2022-08-11T18:03:57.679Z,27.83
2022-08-11T18:06:33.561Z,27.86
2022-08-11T18:09:22.684Z,27.85
2022-08-11T18:12:11.906Z,27.72
2022-08-11T18:14:59.157Z,27.62
2022-08-11T18:17:46.097Z,27.51
2022-08-11T18:20:31.550Z,27.49
2022-08-11T18:23:20.378Z,27.48
2022-08-11T18:26:07.885Z,27.44
2022-08-11T18:28:58.356Z,27.36
2022-08-11T18:31:45.215Z,27.24
2022-08-11T18:34:39.285Z,27.15
2022-08-11T18:37:29.515Z,27.05
2022-08-11T18:40:19.249Z,26.92
2022-08-11T18:43:07.034Z,26.82
2022-08-11T18:46:05.401Z,26.79
2022-08-11T18:48:54.950Z,26.69
2022-08-11T18:51:42.609Z,26.54
2022-08-11T18:54:30.541Z,26.52
2022-08-11T18:57:20.577Z,26.45
2022-08-11T19:00:07.273Z,26.34
2022-08-11T19:02:55.939Z,26.27
2022-08-11T19:06:35.915Z,26.20
2022-08-11T19:08:55.040Z,26.05
2022-08-11T19:11:43.641Z,25.96
2022-08-11T19:14:31.063Z,25.80
2022-08-11T19:17:44.080Z,25.80
2022-08-11T19:20:28.158Z,25.73
2022-08-11T19:23:14.840Z,25.68
2022-08-11T19:26:04.146Z,25.50
2022-08-11T19:28:51.925Z,25.47
2022-08-11T19:31:43.816Z,25.41
2022-08-11T19:34:32.383Z,25.24
2022-08-11T19:37:23.520Z,25.16
2022-08-11T19:40:10.303Z,25.15
2022-08-11T19:43:01.767Z,25.07
2022-08-11T19:45:52.152Z,24.95
2022-08-11T19:48:45.390Z,24.84
2022-08-11T19:51:32.249Z,24.79
2022-08-11T19:54:19.697Z,24.75
2022-08-11T19:57:06.767Z,24.71
2022-08-11T19:59:58.397Z,24.65
2022-08-11T20:02:44.045Z,24.59
2022-08-11T20:05:29.856Z,24.57
2022-08-11T20:08:16.498Z,24.44
2022-08-11T20:11:06.320Z,24.39
2022-08-11T20:13:53.773Z,24.39
2022-08-11T20:16:42.257Z,24.32
2022-08-11T20:19:56.361Z,24.24
2022-08-11T20:22:36.393Z,24.21
2022-08-11T20:25:24.287Z,24.09
2022-08-11T20:28:11.527Z,24.06
2022-08-11T20:30:57.689Z,24.04
2022-08-11T20:33:44.917Z,23.92
2022-08-11T20:36:32.181Z,23.90
2022-08-11T20:39:20.124Z,23.87
2022-08-11T20:42:07.572Z,23.86
2022-08-11T20:44:55.901Z,23.81
2022-08-11T20:47:56.400Z,23.83
2022-08-11T20:50:46.990Z,23.70
2022-08-11T20:53:35.872Z,23.71
2022-08-11T20:59:43.697Z,23.67
2022-08-11T21:02:40.326Z,23.61
2022-08-11T21:08:40.477Z,23.55
2022-08-11T21:11:28.564Z,23.50
2022-08-11T21:14:15.270Z,23.43
2022-08-11T21:17:27.216Z,23.43
2022-08-11T21:20:17.059Z,23.34
2022-08-11T21:23:10.031Z,23.25
2022-08-11T21:26:04.840Z,23.30
2022-08-11T21:28:50.723Z,23.29
2022-08-11T21:31:38.153Z,23.20
2022-08-11T21:34:27.413Z,23.19
2022-08-11T21:37:13.101Z,23.01
2022-08-11T21:40:00.211Z,22.97
2022-08-11T21:42:50.683Z,22.99
2022-08-11T21:45:37.594Z,22.97
2022-08-11T21:48:25.275Z,22.94
2022-08-11T21:51:10.957Z,22.97
2022-08-11T21:53:57.565Z,23.00
2022-08-11T21:56:45.466Z,22.96
2022-08-11T21:59:38.546Z,22.82
2022-08-11T22:02:24.414Z,22.78
2022-08-11T22:05:10.566Z,22.77
2022-08-11T22:07:58.411Z,22.67
2022-08-11T22:10:47.807Z,22.62
2022-08-11T22:13:33.662Z,22.61
2022-08-11T22:16:20.812Z,22.60
2022-08-11T22:19:09.573Z,22.58
2022-08-11T22:22:04.067Z,22.57
2022-08-11T22:24:52.245Z,22.52
2022-08-11T22:27:38.703Z,22.47
2022-08-11T22:30:25.526Z,22.42
2022-08-11T22:33:15.165Z,22.43
2022-08-11T22:36:06.181Z,22.37
2022-08-11T22:38:53.657Z,22.39
2022-08-11T22:41:40.180Z,22.41
2022-08-11T22:44:26.545Z,22.42
2022-08-11T22:47:15.291Z,22.36
2022-08-11T22:50:12.133Z,22.38
2022-08-11T22:52:59.968Z,22.35
2022-08-11T22:55:47.554Z,22.32
2022-08-11T22:58:37.773Z,22.24
2022-08-11T23:01:24.056Z,22.22
2022-08-11T23:04:10.935Z,22.25
2022-08-11T23:07:02.409Z,22.17
2022-08-11T23:09:48.340Z,22.10
2022-08-11T23:12:34.431Z,22.05
2022-08-11T23:15:20.230Z,22.01
2022-08-11T23:18:05.876Z,22.00
2022-08-11T23:20:57.014Z,22.00
2022-08-11T23:23:47.293Z,21.97
2022-08-11T23:26:34.661Z,21.96
2022-08-11T23:29:22.435Z,21.91
2022-08-11T23:32:11.120Z,21.90
2022-08-11T23:35:04.301Z,21.79
2022-08-11T23:37:50.476Z,21.74
2022-08-11T23:40:37.460Z,21.72
2022-08-11T23:43:23.350Z,21.61
2022-08-11T23:46:08.956Z,21.62
2022-08-11T23:48:56.306Z,21.61
2022-08-11T23:51:46.288Z,21.60
2022-08-11T23:54:37.281Z,21.54
2022-08-11T23:57:25.030Z,21.46
